createdAt,value
2022-07-31T04:05:38.647Z,2.65
2022-07-31T04:08:09.412Z,3.08
2022-07-31T04:10:39.448Z,2.90
2022-07-31T04:13:10.403Z,3.08
2022-07-31T04:15:39.852Z,3.10
2022-07-31T04:18:09.592Z,2.60
2022-07-31T04:20:40.823Z,3.02
2022-07-31T04:23:10.888Z,2.95
2022-07-31T04:26:00.407Z,2.90
2022-07-31T04:28:34.427Z,2.90
2022-07-31T04:31:04.298Z,3.25
2022-07-31T04:33:36.057Z,2.52
2022-07-31T04:36:07.326Z,3.17
2022-07-31T04:38:38.649Z,2.83
2022-07-31T04:41:08.174Z,3.02
2022-07-31T04:43:37.872Z,2.67
2022-07-31T04:46:17.186Z,3.00
2022-07-31T04:48:41.287Z,3.00
2022-07-31T04:51:13.566Z,2.75
2022-07-31T04:53:43.387Z,2.98
2022-07-31T04:56:31.080Z,2.83
2022-07-31T04:59:04.132Z,2.75
2022-07-31T05:01:35.066Z,2.77
2022-07-31T05:04:04.701Z,2.52
2022-07-31T05:06:37.291Z,3.08
2022-07-31T05:09:11.577Z,2.27
2022-07-31T05:11:40.728Z,2.80
2022-07-31T05:14:11.979Z,2.70
2022-07-31T05:16:42.256Z,2.67
2022-07-31T05:19:13.602Z,3.40
2022-07-31T05:22:02.601Z,2.77
2022-07-31T05:27:06.100Z,2.87
2022-07-31T05:29:35.606Z,2.65
2022-07-31T05:32:05.205Z,2.52
2022-07-31T05:34:36.197Z,2.42
2022-07-31T05:37:06.141Z,2.77
2022-07-31T05:39:37.389Z,2.83
2022-07-31T05:42:25.292Z,2.50
2022-07-31T05:45:12.191Z,2.60
2022-07-31T05:47:42.262Z,2.67
2022-07-31T05:50:12.377Z,2.50
2022-07-31T05:52:43.376Z,2.60
2022-07-31T05:55:20.888Z,2.70
2022-07-31T05:57:57.915Z,2.60
2022-07-31T06:00:28.796Z,2.83
2022-07-31T06:03:00.097Z,2.67
2022-07-31T06:05:47.812Z,2.27
2022-07-31T06:08:18.208Z,2.58
2022-07-31T06:10:49.018Z,2.60
2022-07-31T06:13:19.606Z,2.23
2022-07-31T06:15:50.447Z,2.20
2022-07-31T06:18:20.146Z,2.40
2022-07-31T06:20:49.896Z,2.70
2022-07-31T06:23:22.633Z,2.40
2022-07-31T06:25:50.997Z,2.50
2022-07-31T06:28:21.308Z,2.23
2022-07-31T06:30:52.473Z,2.30
2022-07-31T06:33:37.082Z,2.05
2022-07-31T06:35:53.211Z,2.52
2022-07-31T06:38:36.405Z,2.95
2022-07-31T06:41:42.219Z,2.60
2022-07-31T06:44:30.246Z,2.77
2022-07-31T06:47:19.426Z,2.30
2022-07-31T06:49:56.635Z,2.05
2022-07-31T06:52:27.980Z,2.10
2022-07-31T06:54:57.715Z,2.30
2022-07-31T06:57:27.562Z,2.08
2022-07-31T06:59:57.446Z,2.35
2022-07-31T07:02:26.955Z,1.90
2022-07-31T07:05:06.201Z,2.00
2022-07-31T07:07:31.590Z,2.15
2022-07-31T07:09:59.761Z,1.90
2022-07-31T07:12:47.856Z,2.30
2022-07-31T07:15:17.708Z,2.22
2022-07-31T07:17:47.159Z,2.17
2022-07-31T07:20:18.571Z,2.00
2022-07-31T07:22:48.112Z,2.27
2022-07-31T07:25:20.754Z,2.17
2022-07-31T07:27:51.258Z,1.90
2022-07-31T07:30:20.909Z,2.08
2022-07-31T07:32:50.425Z,2.00
2022-07-31T07:35:20.001Z,1.70
2022-07-31T07:37:51.211Z,1.80
2022-07-31T07:40:23.187Z,2.02
2022-07-31T07:42:53.406Z,2.35
2022-07-31T07:45:23.493Z,1.60
2022-07-31T07:48:05.716Z,1.80
2022-07-31T07:50:26.873Z,2.10
2022-07-31T07:53:03.189Z,1.95
2022-07-31T07:55:43.622Z,1.80
2022-07-31T07:58:30.182Z,1.95
2022-07-31T08:01:10.469Z,1.87
2022-07-31T08:03:48.753Z,1.80
2022-07-31T08:06:13.227Z,1.60
2022-07-31T08:08:42.825Z,1.70
2022-07-31T08:11:17.564Z,1.67
2022-07-31T08:13:50.955Z,1.60
2022-07-31T08:16:36.949Z,1.82
2022-07-31T08:19:06.665Z,1.60
2022-07-31T08:21:37.774Z,1.87
2022-07-31T08:24:07.882Z,1.55
2022-07-31T08:26:55.810Z,1.80
2022-07-31T08:29:28.752Z,1.42
2022-07-31T08:32:00.246Z,1.70
2022-07-31T08:34:47.004Z,1.92
2022-07-31T08:37:52.676Z,1.77
2022-07-31T08:39:51.606Z,1.90
2022-07-31T08:42:21.591Z,1.47
2022-07-31T08:44:51.925Z,1.72
2022-07-31T08:47:25.375Z,2.00
2022-07-31T08:49:55.753Z,1.67
2022-07-31T08:52:28.486Z,1.83
2022-07-31T08:55:08.819Z,1.65
2022-07-31T08:57:38.505Z,1.90
2022-07-31T09:00:10.832Z,1.30
2022-07-31T09:02:41.578Z,2.20
2022-07-31T09:05:28.701Z,1.70
2022-07-31T09:08:00.060Z,1.80
2022-07-31T09:10:31.279Z,1.73
2022-07-31T09:13:00.799Z,1.95
2022-07-31T09:15:34.348Z,1.70
2022-07-31T09:18:07.183Z,1.70
2022-07-31T09:20:36.922Z,1.83
2022-07-31T09:23:09.997Z,2.27
2022-07-31T09:26:05.929Z,1.80
2022-07-31T09:28:38.000Z,1.80
2022-07-31T09:31:10.868Z,1.57
2022-07-31T09:33:46.171Z,1.50
2022-07-31T09:36:34.455Z,1.47
2022-07-31T09:39:08.675Z,1.40
2022-07-31T09:42:00.119Z,1.65
2022-07-31T09:44:47.633Z,1.52
2022-07-31T09:47:32.353Z,5.20
2022-07-31T09:50:05.874Z,2.08
2022-07-31T09:52:36.073Z,1.47
2022-07-31T09:55:17.053Z,1.45
2022-07-31T09:57:59.619Z,1.50
2022-07-31T10:00:31.272Z,1.50
2022-07-31T10:03:02.482Z,1.50
2022-07-31T10:05:32.730Z,1.30
2022-07-31T10:08:04.539Z,1.42
2022-07-31T10:10:36.858Z,1.52
2022-07-31T10:13:26.942Z,1.77
2022-07-31T10:16:01.598Z,1.70
2022-07-31T10:18:44.892Z,1.55
2022-07-31T10:21:25.198Z,1.90
2022-07-31T10:23:57.712Z,1.87
2022-07-31T10:26:50.654Z,1.37
2022-07-31T10:29:01.059Z,1.70
2022-07-31T10:31:31.913Z,1.32
2022-07-31T10:34:02.795Z,1.20
2022-07-31T10:36:53.652Z,1.37
2022-07-31T10:39:36.767Z,1.12
2022-07-31T10:42:33.361Z,1.40
2022-07-31T10:48:01.719Z,1.47
2022-07-31T10:51:03.963Z,1.42
2022-07-31T10:53:51.593Z,1.47
2022-07-31T10:56:13.631Z,1.50
2022-07-31T10:58:58.939Z,1.20
2022-07-31T11:01:53.228Z,1.87
2022-07-31T11:04:39.836Z,1.17
2022-07-31T11:07:18.750Z,1.23
2022-07-31T11:09:51.353Z,1.47
2022-07-31T11:12:39.650Z,1.22
2022-07-31T11:15:25.487Z,1.27
2022-07-31T11:18:25.127Z,1.17
2022-07-31T11:21:13.578Z,1.30
2022-07-31T11:23:35.695Z,1.40
2022-07-31T11:26:07.495Z,1.33
2022-07-31T11:28:38.277Z,1.45
2022-07-31T11:31:10.173Z,1.36
2022-07-31T11:33:46.642Z,1.40
2022-07-31T11:36:19.414Z,1.20
2022-07-31T11:38:51.096Z,1.37
2022-07-31T11:41:25.726Z,1.37
2022-07-31T11:43:57.712Z,1.37
2022-07-31T11:46:29.980Z,1.17
2022-07-31T11:51:31.139Z,1.25
2022-07-31T11:54:00.859Z,1.30
2022-07-31T11:56:30.634Z,1.10
2022-07-31T11:59:00.098Z,1.27
2022-07-31T12:01:30.738Z,1.47
2022-07-31T12:04:08.416Z,1.52
2022-07-31T12:06:34.839Z,1.20
2022-07-31T12:09:02.785Z,1.30
2022-07-31T12:11:32.968Z,1.40
2022-07-31T12:14:02.519Z,1.32
2022-07-31T12:16:40.886Z,1.40
2022-07-31T12:19:10.348Z,1.47
2022-07-31T12:21:40.938Z,1.15
2022-07-31T12:24:14.975Z,1.00
2022-07-31T12:26:46.972Z,1.27
2022-07-31T12:29:16.468Z,1.05
2022-07-31T12:31:54.546Z,1.12
2022-07-31T12:34:35.854Z,1.17
2022-07-31T12:37:08.630Z,1.10
2022-07-31T12:39:59.521Z,1.00
2022-07-31T12:42:37.564Z,1.12
2022-07-31T12:45:17.924Z,1.52
2022-07-31T12:47:38.080Z,1.10
2022-07-31T12:50:07.879Z,1.30
2022-07-31T12:52:37.625Z,1.82
2022-07-31T12:55:07.423Z,1.15
2022-07-31T12:57:36.858Z,1.10
2022-07-31T13:00:08.975Z,1.30
2022-07-31T13:02:41.680Z,1.00
2022-07-31T13:05:11.508Z,1.20
2022-07-31T13:07:41.152Z,1.15
2022-07-31T13:10:15.028Z,1.32
2022-07-31T13:12:42.576Z,1.20
2022-07-31T13:15:13.116Z,1.30
2022-07-31T13:17:47.861Z,1.10
2022-07-31T13:20:14.621Z,0.90
2022-07-31T13:22:45.259Z,1.10
2022-07-31T13:25:14.868Z,1.43
2022-07-31T13:27:45.002Z,1.20
2022-07-31T13:30:14.627Z,0.82
2022-07-31T13:32:44.203Z,0.72
2022-07-31T13:35:26.324Z,1.57
2022-07-31T13:37:46.760Z,0.90
2022-07-31T13:40:16.513Z,1.10
2022-07-31T13:42:46.529Z,1.10
2022-07-31T13:45:16.090Z,1.12
2022-07-31T13:47:50.854Z,0.93
2022-07-31T13:50:16.774Z,0.90
2022-07-31T13:52:46.303Z,1.17
2022-07-31T13:55:15.879Z,0.90
2022-07-31T13:57:45.306Z,1.07
2022-07-31T14:00:16.139Z,0.80
2022-07-31T14:02:46.616Z,1.00
2022-07-31T14:05:16.964Z,0.90
2022-07-31T14:07:51.604Z,1.20
2022-07-31T14:10:20.685Z,1.00
2022-07-31T14:12:50.434Z,1.25
2022-07-31T14:15:20.243Z,0.72
2022-07-31T14:17:49.791Z,0.60
2022-07-31T14:20:19.387Z,1.17
2022-07-31T14:22:49.048Z,1.05
2022-07-31T14:25:18.587Z,0.75
2022-07-31T14:27:49.457Z,0.80
2022-07-31T14:30:20.119Z,1.03
2022-07-31T14:32:50.096Z,1.63
2022-07-31T14:35:19.556Z,1.10
2022-07-31T14:37:49.206Z,1.10
2022-07-31T14:40:18.784Z,0.78
2022-07-31T14:42:48.493Z,1.05
2022-07-31T14:45:17.932Z,1.15
2022-07-31T14:47:47.817Z,1.00
2022-07-31T14:50:19.702Z,0.78
2022-07-31T14:52:49.288Z,0.82
2022-07-31T14:55:19.768Z,0.73
2022-07-31T14:57:49.563Z,0.85
2022-07-31T15:00:19.945Z,0.75
2022-07-31T15:02:49.689Z,0.90
2022-07-31T15:06:40.930Z,0.88
2022-07-31T15:07:50.540Z,0.90
2022-07-31T15:10:20.337Z,0.78
2022-07-31T15:12:49.795Z,1.00
2022-07-31T15:15:19.297Z,1.00
2022-07-31T15:17:48.920Z,1.20
2022-07-31T15:20:18.460Z,1.07
2022-07-31T15:22:47.919Z,0.88
2022-07-31T15:25:17.629Z,1.07
2022-07-31T15:27:47.139Z,1.07
2022-07-31T15:30:18.390Z,0.98
2022-07-31T15:32:48.602Z,1.02
2022-07-31T15:35:18.241Z,1.10
2022-07-31T15:37:49.604Z,0.90
2022-07-31T15:40:19.337Z,1.23
2022-07-31T15:42:50.037Z,0.80
2022-07-31T15:45:20.934Z,0.87
2022-07-31T15:47:50.568Z,1.00
2022-07-31T15:50:20.633Z,0.80
2022-07-31T15:52:50.645Z,1.00
2022-07-31T15:55:20.231Z,1.15
2022-07-31T15:57:50.987Z,0.80
2022-07-31T16:00:21.882Z,0.90
2022-07-31T16:02:52.285Z,0.82
2022-07-31T16:05:36.051Z,1.00
2022-07-31T16:08:32.082Z,1.00
2022-07-31T16:10:24.956Z,1.00
2022-07-31T16:12:54.648Z,0.75
2022-07-31T16:15:24.295Z,0.93
2022-07-31T16:17:55.634Z,1.00
2022-07-31T16:20:27.136Z,1.00
2022-07-31T16:23:01.453Z,0.95
2022-07-31T16:25:35.000Z,1.00
2022-07-31T16:28:05.266Z,0.80
2022-07-31T16:30:34.969Z,1.00
2022-07-31T16:33:04.483Z,1.00
2022-07-31T16:35:34.001Z,1.17
2022-07-31T16:38:03.492Z,1.20
2022-07-31T16:40:33.669Z,1.07
2022-07-31T16:43:51.067Z,0.93
2022-07-31T16:45:36.256Z,1.00
2022-07-31T16:48:06.431Z,0.75
2022-07-31T16:50:35.857Z,1.00
2022-07-31T16:53:05.388Z,0.80
2022-07-31T16:55:46.117Z,1.00
2022-07-31T16:58:08.527Z,1.00
2022-07-31T17:00:39.037Z,1.17
2022-07-31T17:03:59.039Z,0.95
2022-07-31T17:05:40.146Z,1.05
2022-07-31T17:08:09.859Z,1.15
2022-07-31T17:10:39.392Z,0.93
2022-07-31T17:13:08.823Z,1.00
2022-07-31T17:15:39.524Z,0.85
2022-07-31T17:18:09.201Z,0.83
2022-07-31T17:20:39.420Z,0.80
2022-07-31T17:23:10.967Z,1.00
2022-07-31T17:25:40.538Z,1.00
2022-07-31T17:28:15.037Z,1.22
2022-07-31T17:30:42.357Z,1.07
2022-07-31T17:33:13.990Z,0.85
2022-07-31T17:35:43.552Z,1.20
2022-07-31T17:38:12.997Z,1.10
2022-07-31T17:40:44.060Z,0.80
2022-07-31T17:43:14.818Z,0.82
2022-07-31T17:45:59.556Z,1.00
2022-07-31T17:48:19.305Z,1.00
2022-07-31T17:50:53.827Z,0.93
2022-07-31T17:53:20.186Z,1.10
2022-07-31T17:55:50.179Z,1.02
2022-07-31T17:58:20.745Z,1.10
2022-07-31T18:00:50.242Z,1.10
2022-07-31T18:03:19.921Z,1.32
